Ana Sayfa
METAR-TAF:

METAR-TAF

Havaalanları :

Iğdır Şehit Bülent Aydın Havalimanı

Iğdır, Türkiye

Enlem: 39-58-36N, Boylam: 43-52-36E, yükseklik: 945 m

Güncel hava durumu gözlemi

Rapor saat 13:50 UTC de 16 saat ve 11 dakika önce yapıldı.
Rüzgar güney/güneydoğudan 2 kt
Sıcaklık 6°C
Nem 56%
Basınç 1023 hPa
Görüş mesafesi 10 km veya daha fazla
10000 ft yükseklikte az bulutlu

METAR: LTCT 191350Z 16002KT 9999 FEW100 06/M02 Q1023

Saat: 09:01 (06:01 UTC)

Tahmin

Rapor saat 04:40 UTC de 1 saat ve 21 dakika önce yapıldı.
Ayın 20'si saat 06 UTC'den ayın 20'si saat 15 UTC'ye kadar geçerli Tahmin
Rüzgar değişken yönden 2 kt
Görüş mesafesi 10 km veya daha fazla
1500 m altında bulut yok ve kümülonimbus yok
Dönüşüyor
ayın 20'si saat 09 UTC'den ayın 20'si saat 11 UTC'ye kadar
3500 ft yükseklikte parçalı bulutlu
8000 ft yükseklikte parçalı çok bulutlu

TAF: LTCT 200440Z 2006/2015 VRB02KT CAVOK BECMG 2009/2011 SCT035 BKN080

4.000'den fazla havaalanı için hava durumu gözlemleri ve tahminleri (METAR ve TAF raporları).

Kullanılabilir istasyonlar harita üzerinde sarı ve kırmızı noktalarla gösterilir.

İstasyonun adını görmek için fareyi noktanın üzerinde gezdirin.

Sonrasında hava gözlem ve tahminlerini görmek için tıklayın.

Haritayı değiştirmek için: yaklaştırmak için siyah artı işaretli yeşil düğmeye ve uzaklaştırmak için de eksi işaretli düğmeye hızla tıklayın; bitişik haritalar için yeşil okları kullanın.


METAR-TAF: